sensor_id;sensor_type;location;lat;lon;timestamp;P1;durP1;ratioP1;P2;durP2;ratioP2
85267;SDS011;75677;52.380;4.876;2024-01-30T00:01:19;8.13;;;4.65;;
85267;SDS011;75677;52.380;4.876;2024-01-30T00:03:44;9.25;;;5.15;;
85267;SDS011;75677;52.380;4.876;2024-01-30T00:06:11;9.55;;;4.40;;
85267;SDS011;75677;52.380;4.876;2024-01-30T00:08:37;7.60;;;4.65;;
85267;SDS011;75677;52.380;4.876;2024-01-30T00:11:03;8.43;;;4.45;;
85267;SDS011;75677;52.380;4.876;2024-01-30T00:15:54;7.30;;;3.40;;
85267;SDS011;75677;52.380;4.876;2024-01-30T00:18:20;5.65;;;3.50;;
85267;SDS011;75677;52.380;4.876;2024-01-30T00:20:46;9.00;;;4.65;;
85267;SDS011;75677;52.380;4.876;2024-01-30T00:25:37;7.50;;;4.07;;
85267;SDS011;75677;52.380;4.876;2024-01-30T00:28:02;9.25;;;4.95;;
85267;SDS011;75677;52.380;4.876;2024-01-30T00:30:28;9.48;;;5.15;;
85267;SDS011;75677;52.380;4.876;2024-01-30T00:32:53;8.50;;;4.88;;
85267;SDS011;75677;52.380;4.876;2024-01-30T00:35:19;7.97;;;4.00;;
85267;SDS011;75677;52.380;4.876;2024-01-30T00:37:47;8.18;;;4.22;;
85267;SDS011;75677;52.380;4.876;2024-01-30T00:40:12;8.20;;;5.05;;
85267;SDS011;75677;52.380;4.876;2024-01-30T00:42:43;8.30;;;4.47;;
85267;SDS011;75677;52.380;4.876;2024-01-30T00:45:15;7.22;;;4.78;;
85267;SDS011;75677;52.380;4.876;2024-01-30T00:47:41;7.60;;;4.50;;
85267;SDS011;75677;52.380;4.876;2024-01-30T00:50:07;8.48;;;4.35;;
85267;SDS011;75677;52.380;4.876;2024-01-30T00:52:33;7.30;;;3.97;;
85267;SDS011;75677;52.380;4.876;2024-01-30T00:54:59;8.25;;;3.90;;
85267;SDS011;75677;52.380;4.876;2024-01-30T00:57:25;6.78;;;3.58;;
85267;SDS011;75677;52.380;4.876;2024-01-30T00:59:50;9.13;;;5.03;;
85267;SDS011;75677;52.380;4.876;2024-01-30T01:02:16;8.73;;;5.38;;
85267;SDS011;75677;52.380;4.876;2024-01-30T01:04:42;7.18;;;4.28;;
85267;SDS011;75677;52.380;4.876;2024-01-30T01:07:09;6.57;;;3.92;;
85267;SDS011;75677;52.380;4.876;2024-01-30T01:09:35;7.50;;;3.92;;
85267;SDS011;75677;52.380;4.876;2024-01-30T01:12:01;7.82;;;3.92;;
85267;SDS011;75677;52.380;4.876;2024-01-30T01:14:27;8.05;;;4.15;;
85267;SDS011;75677;52.380;4.876;2024-01-30T01:16:52;6.70;;;4.43;;
85267;SDS011;75677;52.380;4.876;2024-01-30T01:19:17;7.00;;;3.85;;
85267;SDS011;75677;52.380;4.876;2024-01-30T01:21:43;7.15;;;4.20;;
85267;SDS011;75677;52.380;4.876;2024-01-30T01:24:08;7.22;;;4.05;;
85267;SDS011;75677;52.380;4.876;2024-01-30T01:26:34;7.68;;;4.32;;
85267;SDS011;75677;52.380;4.876;2024-01-30T01:29:00;7.60;;;3.97;;
85267;SDS011;75677;52.380;4.876;2024-01-30T01:33:54;7.82;;;3.67;;
85267;SDS011;75677;52.380;4.876;2024-01-30T01:36:20;6.22;;;3.63;;
85267;SDS011;75677;52.380;4.876;2024-01-30T01:38:45;7.65;;;3.88;;
85267;SDS011;75677;52.380;4.876;2024-01-30T01:41:11;7.60;;;4.68;;
85267;SDS011;75677;52.380;4.876;2024-01-30T01:43:36;7.68;;;3.97;;
85267;SDS011;75677;52.380;4.876;2024-01-30T01:46:04;6.35;;;3.75;;
85267;SDS011;75677;52.380;4.876;2024-01-30T01:48:30;7.25;;;4.32;;
85267;SDS011;75677;52.380;4.876;2024-01-30T01:50:55;8.13;;;4.53;;
85267;SDS011;75677;52.380;4.876;2024-01-30T01:53:21;7.45;;;4.65;;
85267;SDS011;75677;52.380;4.876;2024-01-30T01:55:48;5.47;;;3.40;;
85267;SDS011;75677;52.380;4.876;2024-01-30T01:58:14;6.72;;;4.20;;
85267;SDS011;75677;52.380;4.876;2024-01-30T02:00:39;11.15;;;4.38;;
85267;SDS011;75677;52.380;4.876;2024-01-30T02:03:07;6.78;;;4.22;;
85267;SDS011;75677;52.380;4.876;2024-01-30T02:05:35;5.22;;;3.28;;
85267;SDS011;75677;52.380;4.876;2024-01-30T02:08:02;8.32;;;4.35;;
85267;SDS011;75677;52.380;4.876;2024-01-30T02:12:54;6.33;;;3.63;;
85267;SDS011;75677;52.380;4.876;2024-01-30T02:15:20;6.47;;;3.95;;
85267;SDS011;75677;52.380;4.876;2024-01-30T02:17:45;5.53;;;3.75;;
85267;SDS011;75677;52.380;4.876;2024-01-30T02:20:11;6.65;;;4.07;;
85267;SDS011;75677;52.380;4.876;2024-01-30T02:22:36;6.97;;;3.50;;
85267;SDS011;75677;52.380;4.876;2024-01-30T02:25:03;6.95;;;3.78;;
85267;SDS011;75677;52.380;4.876;2024-01-30T02:27:29;6.15;;;3.78;;
85267;SDS011;75677;52.380;4.876;2024-01-30T02:29:54;6.55;;;3.67;;
85267;SDS011;75677;52.380;4.876;2024-01-30T02:32:19;5.83;;;3.77;;
85267;SDS011;75677;52.380;4.876;2024-01-30T02:34:45;7.75;;;3.67;;
85267;SDS011;75677;52.380;4.876;2024-01-30T02:37:10;7.60;;;3.40;;
85267;SDS011;75677;52.380;4.876;2024-01-30T02:39:36;7.97;;;3.97;;
85267;SDS011;75677;52.380;4.876;2024-01-30T02:42:01;8.88;;;4.05;;
85267;SDS011;75677;52.380;4.876;2024-01-30T02:44:26;7.20;;;3.47;;
85267;SDS011;75677;52.380;4.876;2024-01-30T02:46:52;5.90;;;3.70;;
85267;SDS011;75677;52.380;4.876;2024-01-30T02:49:19;7.00;;;3.45;;
85267;SDS011;75677;52.380;4.876;2024-01-30T02:51:44;6.13;;;3.83;;
85267;SDS011;75677;52.380;4.876;2024-01-30T02:54:10;7.70;;;3.90;;
85267;SDS011;75677;52.380;4.876;2024-01-30T02:56:35;7.25;;;3.83;;
85267;SDS011;75677;52.380;4.876;2024-01-30T02:59:01;6.88;;;3.72;;
85267;SDS011;75677;52.380;4.876;2024-01-30T03:01:26;7.68;;;3.65;;
85267;SDS011;75677;52.380;4.876;2024-01-30T03:03:51;6.57;;;3.90;;
85267;SDS011;75677;52.380;4.876;2024-01-30T03:06:17;4.60;;;2.77;;
85267;SDS011;75677;52.380;4.876;2024-01-30T03:08:45;5.40;;;2.95;;
85267;SDS011;75677;52.380;4.876;2024-01-30T03:11:10;6.28;;;3.95;;
85267;SDS011;75677;52.380;4.876;2024-01-30T03:13:36;5.97;;;3.53;;
85267;SDS011;75677;52.380;4.876;2024-01-30T03:16:01;6.77;;;3.70;;
85267;SDS011;75677;52.380;4.876;2024-01-30T03:18:26;6.75;;;4.00;;
85267;SDS011;75677;52.380;4.876;2024-01-30T03:20:52;6.65;;;3.63;;
85267;SDS011;75677;52.380;4.876;2024-01-30T03:23:17;6.68;;;3.22;;
85267;SDS011;75677;52.380;4.876;2024-01-30T03:25:44;6.60;;;3.37;;
85267;SDS011;75677;52.380;4.876;2024-01-30T03:28:09;5.53;;;3.35;;
85267;SDS011;75677;52.380;4.876;2024-01-30T03:30:34;5.65;;;3.55;;
85267;SDS011;75677;52.380;4.876;2024-01-30T03:33:00;6.45;;;3.90;;
85267;SDS011;75677;52.380;4.876;2024-01-30T03:35:25;6.40;;;3.72;;
85267;SDS011;75677;52.380;4.876;2024-01-30T03:37:51;6.20;;;3.47;;
85267;SDS011;75677;52.380;4.876;2024-01-30T03:40:16;7.40;;;3.95;;
85267;SDS011;75677;52.380;4.876;2024-01-30T03:42:41;7.47;;;3.78;;
85267;SDS011;75677;52.380;4.876;2024-01-30T03:45:07;5.05;;;3.42;;
85267;SDS011;75677;52.380;4.876;2024-01-30T03:47:33;6.10;;;3.47;;
85267;SDS011;75677;52.380;4.876;2024-01-30T03:49:58;6.28;;;3.60;;
85267;SDS011;75677;52.380;4.876;2024-01-30T03:52:24;6.38;;;3.17;;
85267;SDS011;75677;52.380;4.876;2024-01-30T03:54:49;6.03;;;3.30;;
85267;SDS011;75677;52.380;4.876;2024-01-30T03:57:15;6.43;;;3.97;;
85267;SDS011;75677;52.380;4.876;2024-01-30T03:59:43;6.50;;;3.47;;
85267;SDS011;75677;52.380;4.876;2024-01-30T04:02:10;7.03;;;3.25;;
85267;SDS011;75677;52.380;4.876;2024-01-30T04:04:36;6.65;;;3.22;;
85267;SDS011;75677;52.380;4.876;2024-01-30T04:07:02;6.07;;;2.95;;
85267;SDS011;75677;52.380;4.876;2024-01-30T04:09:27;7.05;;;3.20;;
85267;SDS011;75677;52.380;4.876;2024-01-30T04:11:53;7.22;;;3.53;;
85267;SDS011;75677;52.380;4.876;2024-01-30T04:14:19;6.03;;;3.80;;
85267;SDS011;75677;52.380;4.876;2024-01-30T04:16:44;5.72;;;3.03;;
85267;SDS011;75677;52.380;4.876;2024-01-30T04:19:10;7.32;;;3.72;;
85267;SDS011;75677;52.380;4.876;2024-01-30T04:21:35;7.20;;;3.25;;
85267;SDS011;75677;52.380;4.876;2024-01-30T04:24:01;6.05;;;2.97;;
85267;SDS011;75677;52.380;4.876;2024-01-30T04:26:26;5.95;;;3.30;;
85267;SDS011;75677;52.380;4.876;2024-01-30T04:28:53;6.45;;;3.25;;
85267;SDS011;75677;52.380;4.876;2024-01-30T04:31:18;6.55;;;3.47;;
85267;SDS011;75677;52.380;4.876;2024-01-30T04:33:43;5.93;;;3.47;;
85267;SDS011;75677;52.380;4.876;2024-01-30T04:36:09;6.82;;;3.20;;
85267;SDS011;75677;52.380;4.876;2024-01-30T04:38:40;5.63;;;3.17;;
85267;SDS011;75677;52.380;4.876;2024-01-30T04:41:05;4.88;;;2.75;;
85267;SDS011;75677;52.380;4.876;2024-01-30T04:43:31;6.07;;;3.25;;
85267;SDS011;75677;52.380;4.876;2024-01-30T04:45:56;6.00;;;2.63;;
85267;SDS011;75677;52.380;4.876;2024-01-30T04:48:22;6.10;;;3.15;;
85267;SDS011;75677;52.380;4.876;2024-01-30T04:50:47;6.60;;;2.70;;
85267;SDS011;75677;52.380;4.876;2024-01-30T04:53:12;8.48;;;4.28;;
85267;SDS011;75677;52.380;4.876;2024-01-30T04:55:38;5.78;;;3.05;;
85267;SDS011;75677;52.380;4.876;2024-01-30T04:58:03;5.68;;;2.53;;
85267;SDS011;75677;52.380;4.876;2024-01-30T05:00:29;7.38;;;3.05;;
85267;SDS011;75677;52.380;4.876;2024-01-30T05:02:55;6.35;;;3.95;;
85267;SDS011;75677;52.380;4.876;2024-01-30T05:05:21;5.93;;;3.22;;
85267;SDS011;75677;52.380;4.876;2024-01-30T05:07:46;6.80;;;3.33;;
85267;SDS011;75677;52.380;4.876;2024-01-30T05:10:12;6.43;;;3.03;;
85267;SDS011;75677;52.380;4.876;2024-01-30T05:12:38;7.93;;;3.13;;
85267;SDS011;75677;52.380;4.876;2024-01-30T05:15:04;5.18;;;3.03;;
85267;SDS011;75677;52.380;4.876;2024-01-30T05:17:30;7.60;;;3.13;;
85267;SDS011;75677;52.380;4.876;2024-01-30T05:19:55;6.28;;;3.17;;
85267;SDS011;75677;52.380;4.876;2024-01-30T05:22:21;6.37;;;3.43;;
85267;SDS011;75677;52.380;4.876;2024-01-30T05:24:46;5.80;;;3.25;;
85267;SDS011;75677;52.380;4.876;2024-01-30T05:27:11;4.85;;;3.38;;
85267;SDS011;75677;52.380;4.876;2024-01-30T05:29:38;5.93;;;3.13;;
85267;SDS011;75677;52.380;4.876;2024-01-30T05:34:32;4.55;;;2.45;;
85267;SDS011;75677;52.380;4.876;2024-01-30T05:36:58;6.25;;;3.00;;
85267;SDS011;75677;52.380;4.876;2024-01-30T05:39:24;5.40;;;2.35;;
85267;SDS011;75677;52.380;4.876;2024-01-30T05:41:49;5.22;;;2.70;;
85267;SDS011;75677;52.380;4.876;2024-01-30T05:44:14;5.47;;;2.63;;
85267;SDS011;75677;52.380;4.876;2024-01-30T05:46:40;5.18;;;3.17;;
85267;SDS011;75677;52.380;4.876;2024-01-30T05:49:05;5.30;;;2.65;;
85267;SDS011;75677;52.380;4.876;2024-01-30T05:51:31;4.38;;;2.67;;
85267;SDS011;75677;52.380;4.876;2024-01-30T05:53:56;4.95;;;2.60;;
85267;SDS011;75677;52.380;4.876;2024-01-30T05:56:22;5.53;;;2.42;;
85267;SDS011;75677;52.380;4.876;2024-01-30T05:58:48;4.20;;;2.55;;
85267;SDS011;75677;52.380;4.876;2024-01-30T06:01:15;4.75;;;2.47;;
85267;SDS011;75677;52.380;4.876;2024-01-30T06:03:41;6.53;;;2.83;;
85267;SDS011;75677;52.380;4.876;2024-01-30T06:06:08;5.25;;;2.70;;
85267;SDS011;75677;52.380;4.876;2024-01-30T06:08:33;5.18;;;2.75;;
85267;SDS011;75677;52.380;4.876;2024-01-30T06:10:59;5.70;;;2.55;;
85267;SDS011;75677;52.380;4.876;2024-01-30T06:13:25;4.75;;;2.75;;
85267;SDS011;75677;52.380;4.876;2024-01-30T06:15:51;6.93;;;2.58;;
85267;SDS011;75677;52.380;4.876;2024-01-30T06:18:16;5.53;;;2.80;;
85267;SDS011;75677;52.380;4.876;2024-01-30T06:20:42;5.43;;;2.72;;
85267;SDS011;75677;52.380;4.876;2024-01-30T06:23:07;5.85;;;2.30;;
85267;SDS011;75677;52.380;4.876;2024-01-30T06:25:33;6.32;;;3.05;;
85267;SDS011;75677;52.380;4.876;2024-01-30T06:27:58;7.35;;;3.33;;
85267;SDS011;75677;52.380;4.876;2024-01-30T06:30:24;5.50;;;2.80;;
85267;SDS011;75677;52.380;4.876;2024-01-30T06:32:50;7.22;;;3.30;;
85267;SDS011;75677;52.380;4.876;2024-01-30T06:35:16;5.13;;;2.83;;
85267;SDS011;75677;52.380;4.876;2024-01-30T06:37:42;6.55;;;3.78;;
85267;SDS011;75677;52.380;4.876;2024-01-30T06:40:08;6.47;;;3.20;;
85267;SDS011;75677;52.380;4.876;2024-01-30T06:42:34;5.03;;;2.63;;
85267;SDS011;75677;52.380;4.876;2024-01-30T06:44:59;7.82;;;2.92;;
85267;SDS011;75677;52.380;4.876;2024-01-30T06:47:25;5.80;;;2.83;;
85267;SDS011;75677;52.380;4.876;2024-01-30T06:49:50;6.68;;;2.78;;
85267;SDS011;75677;52.380;4.876;2024-01-30T06:52:16;9.57;;;3.60;;
85267;SDS011;75677;52.380;4.876;2024-01-30T06:54:41;7.05;;;3.83;;
85267;SDS011;75677;52.380;4.876;2024-01-30T06:57:07;9.10;;;3.05;;
85267;SDS011;75677;52.380;4.876;2024-01-30T06:59:36;6.88;;;2.97;;
85267;SDS011;75677;52.380;4.876;2024-01-30T07:02:02;7.65;;;3.28;;
85267;SDS011;75677;52.380;4.876;2024-01-30T07:04:27;7.55;;;3.17;;
85267;SDS011;75677;52.380;4.876;2024-01-30T07:06:53;8.13;;;3.42;;
85267;SDS011;75677;52.380;4.876;2024-01-30T07:09:18;5.95;;;2.85;;
85267;SDS011;75677;52.380;4.876;2024-01-30T07:11:44;6.25;;;3.10;;
85267;SDS011;75677;52.380;4.876;2024-01-30T07:14:09;5.80;;;3.05;;
85267;SDS011;75677;52.380;4.876;2024-01-30T07:16:35;5.57;;;3.08;;
85267;SDS011;75677;52.380;4.876;2024-01-30T07:19:01;7.38;;;4.03;;
85267;SDS011;75677;52.380;4.876;2024-01-30T07:21:26;8.65;;;2.83;;
85267;SDS011;75677;52.380;4.876;2024-01-30T07:23:53;6.72;;;3.05;;
85267;SDS011;75677;52.380;4.876;2024-01-30T07:26:20;6.88;;;3.72;;
85267;SDS011;75677;52.380;4.876;2024-01-30T07:28:45;8.88;;;3.40;;
85267;SDS011;75677;52.380;4.876;2024-01-30T07:31:13;8.20;;;3.15;;
85267;SDS011;75677;52.380;4.876;2024-01-30T07:33:38;7.35;;;3.70;;
85267;SDS011;75677;52.380;4.876;2024-01-30T07:36:04;5.60;;;3.25;;
85267;SDS011;75677;52.380;4.876;2024-01-30T07:38:33;6.47;;;3.13;;
85267;SDS011;75677;52.380;4.876;2024-01-30T07:40:58;6.47;;;3.42;;
85267;SDS011;75677;52.380;4.876;2024-01-30T07:43:24;5.57;;;3.05;;
85267;SDS011;75677;52.380;4.876;2024-01-30T07:45:49;6.20;;;2.72;;
85267;SDS011;75677;52.380;4.876;2024-01-30T07:48:15;5.57;;;3.08;;
85267;SDS011;75677;52.380;4.876;2024-01-30T07:50:40;7.13;;;3.13;;
85267;SDS011;75677;52.380;4.876;2024-01-30T07:53:06;7.40;;;3.60;;
85267;SDS011;75677;52.380;4.876;2024-01-30T07:55:31;5.95;;;3.10;;
85267;SDS011;75677;52.380;4.876;2024-01-30T07:57:57;5.60;;;2.92;;
85267;SDS011;75677;52.380;4.876;2024-01-30T08:00:24;7.20;;;2.92;;
85267;SDS011;75677;52.380;4.876;2024-01-30T08:02:49;7.68;;;3.53;;
85267;SDS011;75677;52.380;4.876;2024-01-30T08:05:24;6.09;;;3.47;;
85267;SDS011;75677;52.380;4.876;2024-01-30T08:07:49;7.13;;;3.08;;
85267;SDS011;75677;52.380;4.876;2024-01-30T08:10:15;7.20;;;3.42;;
85267;SDS011;75677;52.380;4.876;2024-01-30T08:12:41;8.30;;;3.45;;
85267;SDS011;75677;52.380;4.876;2024-01-30T08:15:06;6.15;;;3.90;;
85267;SDS011;75677;52.380;4.876;2024-01-30T08:17:33;7.93;;;3.55;;
85267;SDS011;75677;52.380;4.876;2024-01-30T08:19:58;8.55;;;3.30;;
85267;SDS011;75677;52.380;4.876;2024-01-30T08:22:24;6.05;;;3.30;;
85267;SDS011;75677;52.380;4.876;2024-01-30T08:24:50;8.68;;;3.15;;
85267;SDS011;75677;52.380;4.876;2024-01-30T08:27:15;7.70;;;3.00;;
85267;SDS011;75677;52.380;4.876;2024-01-30T08:29:40;6.68;;;3.17;;
85267;SDS011;75677;52.380;4.876;2024-01-30T08:32:06;7.47;;;3.70;;
85267;SDS011;75677;52.380;4.876;2024-01-30T08:34:33;8.00;;;3.13;;
85267;SDS011;75677;52.380;4.876;2024-01-30T08:36:58;6.05;;;2.92;;
85267;SDS011;75677;52.380;4.876;2024-01-30T08:39:24;6.63;;;2.72;;
85267;SDS011;75677;52.380;4.876;2024-01-30T08:41:50;6.85;;;3.17;;
85267;SDS011;75677;52.380;4.876;2024-01-30T08:44:17;5.63;;;3.05;;
85267;SDS011;75677;52.380;4.876;2024-01-30T08:49:08;6.93;;;2.92;;
85267;SDS011;75677;52.380;4.876;2024-01-30T08:51:53;5.65;;;2.90;;
85267;SDS011;75677;52.380;4.876;2024-01-30T08:54:19;7.07;;;3.50;;
85267;SDS011;75677;52.380;4.876;2024-01-30T08:56:45;5.10;;;3.30;;
85267;SDS011;75677;52.380;4.876;2024-01-30T08:59:10;8.88;;;2.97;;
85267;SDS011;75677;52.380;4.876;2024-01-30T09:01:36;8.40;;;2.72;;
85267;SDS011;75677;52.380;4.876;2024-01-30T09:04:02;5.88;;;2.53;;
85267;SDS011;75677;52.380;4.876;2024-01-30T09:06:27;5.28;;;2.65;;
85267;SDS011;75677;52.380;4.876;2024-01-30T09:08:54;9.35;;;3.42;;
85267;SDS011;75677;52.380;4.876;2024-01-30T09:11:19;6.70;;;3.75;;
85267;SDS011;75677;52.380;4.876;2024-01-30T09:13:45;7.80;;;3.38;;
85267;SDS011;75677;52.380;4.876;2024-01-30T09:16:10;6.38;;;3.10;;
85267;SDS011;75677;52.380;4.876;2024-01-30T09:18:36;7.15;;;3.08;;
85267;SDS011;75677;52.380;4.876;2024-01-30T09:21:01;5.72;;;2.80;;
85267;SDS011;75677;52.380;4.876;2024-01-30T09:23:27;6.32;;;2.13;;
85267;SDS011;75677;52.380;4.876;2024-01-30T09:25:53;7.30;;;2.97;;
85267;SDS011;75677;52.380;4.876;2024-01-30T09:28:18;5.45;;;2.70;;
85267;SDS011;75677;52.380;4.876;2024-01-30T09:30:44;7.38;;;3.58;;
85267;SDS011;75677;52.380;4.876;2024-01-30T09:33:09;6.63;;;3.15;;
85267;SDS011;75677;52.380;4.876;2024-01-30T09:35:35;8.82;;;3.15;;
85267;SDS011;75677;52.380;4.876;2024-01-30T09:38:01;9.02;;;3.90;;
85267;SDS011;75677;52.380;4.876;2024-01-30T09:40:27;7.38;;;3.20;;
85267;SDS011;75677;52.380;4.876;2024-01-30T09:42:53;6.70;;;2.45;;
85267;SDS011;75677;52.380;4.876;2024-01-30T09:45:19;6.95;;;2.80;;
85267;SDS011;75677;52.380;4.876;2024-01-30T09:47:48;10.30;;;3.47;;
85267;SDS011;75677;52.380;4.876;2024-01-30T09:50:14;5.65;;;2.58;;
85267;SDS011;75677;52.380;4.876;2024-01-30T09:55:06;6.83;;;2.93;;
85267;SDS011;75677;52.380;4.876;2024-01-30T09:57:33;7.50;;;2.10;;
85267;SDS011;75677;52.380;4.876;2024-01-30T09:59:59;7.95;;;2.97;;
85267;SDS011;75677;52.380;4.876;2024-01-30T10:02:25;7.80;;;2.85;;
85267;SDS011;75677;52.380;4.876;2024-01-30T10:04:51;6.30;;;2.05;;
85267;SDS011;75677;52.380;4.876;2024-01-30T10:07:20;4.90;;;1.88;;
85267;SDS011;75677;52.380;4.876;2024-01-30T10:09:46;5.82;;;2.35;;
85267;SDS011;75677;52.380;4.876;2024-01-30T10:12:12;7.55;;;2.53;;
85267;SDS011;75677;52.380;4.876;2024-01-30T10:14:41;8.60;;;2.15;;
85267;SDS011;75677;52.380;4.876;2024-01-30T10:17:08;3.78;;;1.52;;
85267;SDS011;75677;52.380;4.876;2024-01-30T10:19:34;5.18;;;1.60;;
85267;SDS011;75677;52.380;4.876;2024-01-30T10:22:04;5.82;;;1.67;;
85267;SDS011;75677;52.380;4.876;2024-01-30T10:24:30;6.85;;;2.25;;
85267;SDS011;75677;52.380;4.876;2024-01-30T10:26:56;5.68;;;1.40;;
85267;SDS011;75677;52.380;4.876;2024-01-30T10:29:23;5.07;;;1.52;;
85267;SDS011;75677;52.380;4.876;2024-01-30T10:34:27;4.78;;;1.23;;
85267;SDS011;75677;52.380;4.876;2024-01-30T10:37:14;4.25;;;1.20;;
85267;SDS011;75677;52.380;4.876;2024-01-30T10:39:41;2.88;;;1.15;;
85267;SDS011;75677;52.380;4.876;2024-01-30T10:42:13;5.57;;;1.08;;
85267;SDS011;75677;52.380;4.876;2024-01-30T10:45:25;6.05;;;0.95;;
85267;SDS011;75677;52.380;4.876;2024-01-30T10:47:31;7.28;;;1.25;;
85267;SDS011;75677;52.380;4.876;2024-01-30T10:50:00;8.35;;;1.50;;
85267;SDS011;75677;52.380;4.876;2024-01-30T10:52:26;4.03;;;0.90;;
85267;SDS011;75677;52.380;4.876;2024-01-30T10:54:55;5.38;;;1.33;;
85267;SDS011;75677;52.380;4.876;2024-01-30T10:59:48;3.85;;;0.90;;
85267;SDS011;75677;52.380;4.876;2024-01-30T11:02:15;2.97;;;0.93;;
85267;SDS011;75677;52.380;4.876;2024-01-30T11:04:41;3.95;;;1.02;;
85267;SDS011;75677;52.380;4.876;2024-01-30T11:10:07;5.30;;;1.48;;
85267;SDS011;75677;52.380;4.876;2024-01-30T11:12:37;4.22;;;1.23;;
85267;SDS011;75677;52.380;4.876;2024-01-30T11:15:09;5.57;;;1.42;;
85267;SDS011;75677;52.380;4.876;2024-01-30T11:17:42;2.47;;;0.52;;
85267;SDS011;75677;52.380;4.876;2024-01-30T11:20:11;3.92;;;0.90;;
85267;SDS011;75677;52.380;4.876;2024-01-30T11:22:45;3.80;;;0.60;;
85267;SDS011;75677;52.380;4.876;2024-01-30T11:25:15;2.80;;;1.52;;
85267;SDS011;75677;52.380;4.876;2024-01-30T11:27:45;2.92;;;0.75;;
85267;SDS011;75677;52.380;4.876;2024-01-30T11:30:21;4.40;;;0.65;;
85267;SDS011;75677;52.380;4.876;2024-01-30T11:33:07;3.25;;;1.02;;
85267;SDS011;75677;52.380;4.876;2024-01-30T11:38:13;6.43;;;1.13;;
85267;SDS011;75677;52.380;4.876;2024-01-30T11:40:39;5.03;;;0.60;;
85267;SDS011;75677;52.380;4.876;2024-01-30T11:43:06;2.95;;;0.60;;
85267;SDS011;75677;52.380;4.876;2024-01-30T11:45:33;3.60;;;0.63;;
85267;SDS011;75677;52.380;4.876;2024-01-30T11:48:00;4.28;;;0.63;;
85267;SDS011;75677;52.380;4.876;2024-01-30T11:50:28;3.58;;;0.63;;
85267;SDS011;75677;52.380;4.876;2024-01-30T11:52:55;4.15;;;0.82;;
85267;SDS011;75677;52.380;4.876;2024-01-30T11:55:21;2.38;;;0.45;;
85267;SDS011;75677;52.380;4.876;2024-01-30T11:57:46;4.15;;;0.73;;
85267;SDS011;75677;52.380;4.876;2024-01-30T12:00:16;2.42;;;0.60;;
85267;SDS011;75677;52.380;4.876;2024-01-30T12:02:43;3.17;;;0.60;;
85267;SDS011;75677;52.380;4.876;2024-01-30T12:05:09;4.70;;;0.55;;
